Time;durP1;ratioP1;P1;durP2;ratioP2;P2;SDS_P1;SDS_P2;PMS_P1;PMS_P2;Temp;Humidity;BMP_temperature;BMP_pressure;BME280_temperature;BME280_humidity;BME280_pressure;Samples;Min_cycle;Max_cycle;Signal;HPM_P1;HPM_P2
2023/04/04 00:00:00;;;;;;;3.47;3.17;;;;;;;9.45;74.69;93476.59;4993423;28;20730;-68
2023/04/04 00:02:26;;;;;;;3.50;3.20;;;;;;;9.58;74.46;93477.78;4979784;28;20228;-67
2023/04/04 00:04:51;;;;;;;2.53;2.43;;;;;;;9.49;74.79;93474.44;4966171;28;20299;-67
2023/04/04 00:07:17;;;;;;;3.00;2.80;;;;;;;9.67;74.40;93489.78;4968051;28;20231;-68
2023/04/04 00:09:42;;;;;;;2.80;2.60;;;;;;;9.67;74.02;93482.72;4993704;28;20804;-68
2023/04/04 00:12:08;;;;;;;2.60;2.40;;;;;;;9.74;73.72;93489.88;4967113;28;20251;-68
2023/04/04 00:14:33;;;;;;;2.40;2.20;;;;;;;9.68;73.93;93497.50;4968375;28;20199;-68
2023/04/04 00:16:59;;;;;;;2.83;2.63;;;;;;;9.65;74.15;93499.66;4967246;28;20227;-68
2023/04/04 00:19:24;;;;;;;2.40;2.30;;;;;;;9.68;74.05;93504.56;4961942;28;20583;-68
2023/04/04 00:21:50;;;;;;;2.45;2.28;;;;;;;9.50;74.78;93504.94;4986116;28;20229;-68
2023/04/04 00:24:15;;;;;;;2.77;2.57;;;;;;;9.61;74.76;93493.97;4969696;28;20228;-68
2023/04/04 00:26:41;;;;;;;2.43;2.23;;;;;;;9.50;74.78;93500.50;4979740;28;20202;-69
2023/04/04 00:29:06;;;;;;;2.60;2.40;;;;;;;9.57;74.84;93492.72;4959238;28;20216;-67
2023/04/04 00:31:32;;;;;;;2.20;2.10;;;;;;;9.66;74.31;93494.22;4993709;28;20243;-68
2023/04/04 00:33:57;;;;;;;2.03;1.80;;;;;;;9.67;73.66;93487.16;4969143;28;20236;-68
2023/04/04 00:36:23;;;;;;;3.38;2.10;;;;;;;9.67;73.47;93495.03;4994344;28;20232;-67
2023/04/04 00:38:48;;;;;;;1.77;1.67;;;;;;;9.66;73.13;93486.34;4968027;28;20215;-67
2023/04/04 00:41:15;;;;;;;2.00;1.90;;;;;;;9.68;72.68;93473.88;4967732;28;20184;-67
2023/04/04 00:43:41;;;;;;;2.00;1.80;;;;;;;9.69;73.01;93478.09;4966382;28;20220;-68
2023/04/04 00:46:07;;;;;;;2.07;1.97;;;;;;;9.71;72.93;93470.06;4974661;28;20263;-68
2023/04/04 00:48:33;;;;;;;1.80;1.70;;;;;;;9.62;73.19;93461.50;4973724;28;20232;-68
2023/04/04 00:50:58;;;;;;;2.63;2.42;;;;;;;9.72;73.20;93458.56;4972353;28;20311;-68
2023/04/04 00:53:24;;;;;;;2.60;2.40;;;;;;;9.77;73.43;93464.06;4972631;28;20256;-68
2023/04/04 00:55:50;;;;;;;2.83;2.63;;;;;;;9.80;73.12;93453.19;4998456;28;20232;-69
2023/04/04 00:58:16;;;;;;;2.80;2.60;;;;;;;9.75;72.98;93455.56;4971565;28;20224;-68
2023/04/04 01:00:41;;;;;;;2.73;2.53;;;;;;;9.77;73.30;93458.00;4969338;28;20227;-68
2023/04/04 01:03:11;;;;;;;2.43;2.23;;;;;;;9.80;72.99;93458.44;4972427;28;20232;-68
2023/04/04 01:05:37;;;;;;;3.33;3.13;;;;;;;9.80;72.55;93466.31;4994677;28;20247;-68
2023/04/04 01:08:02;;;;;;;3.13;2.83;;;;;;;9.86;72.47;93467.38;4975420;28;20227;-68
2023/04/04 01:10:35;;;;;;;2.90;2.70;;;;;;;9.86;72.33;93472.63;4973028;28;20255;-69
2023/04/04 01:13:00;;;;;;;3.17;2.87;;;;;;;9.87;72.34;93471.66;4965611;28;20229;-68
2023/04/04 01:15:26;;;;;;;3.23;3.03;;;;;;;9.82;72.32;93466.97;4999963;28;20684;-68
2023/04/04 01:17:56;;;;;;;3.55;3.25;;;;;;;9.87;72.81;93480.34;4998914;28;20204;-68
2023/04/04 01:20:25;;;;;;;3.50;3.30;;;;;;;9.80;72.68;93474.19;4972795;28;20180;-68
2023/04/04 01:22:53;;;;;;;4.00;3.70;;;;;;;9.78;73.25;93473.56;5004052;28;20262;-68
2023/04/04 01:25:29;;;;;;;3.67;3.37;;;;;;;9.80;73.21;93476.81;4965748;28;20224;-69
2023/04/04 01:27:55;;;;;;;4.20;3.80;;;;;;;9.74;73.45;93484.63;4969523;28;20220;-69
2023/04/04 01:30:22;;;;;;;4.67;4.23;;;;;;;9.65;73.86;93476.88;4973024;28;20224;-69
2023/04/04 01:33:04;;;;;;;4.80;4.30;;;;;;;9.66;74.05;93475.84;4971926;28;20648;-69
2023/04/04 01:35:39;;;;;;;4.63;4.33;;;;;;;9.68;74.16;93475.69;5002461;28;20211;-69
2023/04/04 01:38:28;;;;;;;5.40;4.90;;;;;;;9.70;74.94;93479.75;5003028;28;20242;-69
2023/04/04 01:41:00;;;;;;;5.23;4.87;;;;;;;9.60;74.81;93473.97;4965677;28;20250;-69
2023/04/04 01:43:25;;;;;;;4.53;4.23;;;;;;;9.67;75.25;93468.78;4966137;28;20224;-69
2023/04/04 01:45:51;;;;;;;4.23;3.93;;;;;;;9.66;74.69;93461.94;4971719;28;20587;-68
2023/04/04 01:48:16;;;;;;;4.07;3.67;;;;;;;9.63;74.38;93454.44;4977114;28;20244;-68
2023/04/04 01:50:41;;;;;;;3.30;3.10;;;;;;;9.62;74.31;93448.38;4969148;28;20240;-68
2023/04/04 01:53:07;;;;;;;3.57;3.27;;;;;;;9.56;74.13;93440.41;4972492;28;20212;-68
2023/04/04 01:55:32;;;;;;;3.77;3.10;;;;;;;9.55;74.08;93441.41;4987903;28;20238;-68
2023/04/04 01:57:58;;;;;;;2.73;2.53;;;;;;;9.58;73.97;93433.16;4970685;28;20230;-68
2023/04/04 02:00:23;;;;;;;3.80;2.80;;;;;;;9.50;73.99;93431.47;4973115;28;20282;-68
2023/04/04 02:02:49;;;;;;;2.80;2.60;;;;;;;9.53;73.96;93438.97;4999847;28;20244;-68
2023/04/04 02:05:15;;;;;;;2.77;2.57;;;;;;;9.53;73.54;93436.34;4969153;28;20255;-68
2023/04/04 02:07:40;;;;;;;2.27;2.17;;;;;;;9.50;73.21;93437.50;4995902;28;20228;-68
2023/04/04 02:10:06;;;;;;;2.20;1.70;;;;;;;9.52;72.48;93436.53;4965272;28;20274;-68
2023/04/04 02:12:32;;;;;;;1.63;1.53;;;;;;;9.49;71.90;93432.47;4998298;28;20260;-68
2023/04/04 02:14:58;;;;;;;1.90;1.70;;;;;;;9.55;72.05;93433.53;4967365;28;20248;-68
2023/04/04 02:17:24;;;;;;;1.60;1.50;;;;;;;9.55;71.53;93436.97;4972680;28;20188;-67
2023/04/04 02:19:49;;;;;;;1.30;1.20;;;;;;;9.55;71.12;93434.34;4972798;28;20350;-67
2023/04/04 02:22:15;;;;;;;1.70;1.60;;;;;;;9.53;71.53;93427.66;4972422;28;20310;-67
2023/04/04 02:24:40;;;;;;;1.50;1.40;;;;;;;9.57;70.77;93432.38;4968119;28;20223;-67
2023/04/04 02:27:06;;;;;;;1.20;1.17;;;;;;;9.55;71.01;93429.09;4970105;28;20303;-67
2023/04/04 02:29:31;;;;;;;1.30;1.20;;;;;;;9.43;70.91;93430.56;4970734;28;20208;-66
2023/04/04 02:31:56;;;;;;;0.87;0.87;;;;;;;9.45;71.23;93428.56;4970009;28;20227;-65
2023/04/04 02:34:22;;;;;;;1.03;1.03;;;;;;;9.31;71.65;93430.22;4968760;28;20246;-65
2023/04/04 02:36:47;;;;;;;2.53;1.00;;;;;;;9.40;70.68;93428.31;4969776;28;20239;-66
2023/04/04 02:39:13;;;;;;;0.70;0.70;;;;;;;9.27;69.79;93426.31;4993308;28;20227;-66
2023/04/04 02:41:38;;;;;;;0.80;0.80;;;;;;;9.28;70.26;93435.84;4966928;28;20367;-66
2023/04/04 02:44:04;;;;;;;2.50;0.80;;;;;;;9.13;70.72;93425.34;4971450;28;20192;-66
2023/04/04 02:46:29;;;;;;;0.73;0.73;;;;;;;9.20;70.33;93434.13;4972715;28;20242;-65
2023/04/04 02:48:55;;;;;;;0.60;0.60;;;;;;;9.22;70.19;93426.91;4974081;28;20224;-65
2023/04/04 02:51:20;;;;;;;0.70;0.70;;;;;;;9.23;70.61;93430.31;4972325;28;20224;-66
2023/04/04 02:53:45;;;;;;;0.80;0.80;;;;;;;9.36;70.66;93429.69;4970391;28;20234;-66
2023/04/04 02:56:11;;;;;;;0.80;0.80;;;;;;;9.34;70.90;93429.06;4972720;28;20652;-65
2023/04/04 02:58:36;;;;;;;0.80;0.80;;;;;;;9.40;70.50;93428.31;4968813;28;20220;-66
2023/04/04 03:01:02;;;;;;;0.80;0.80;;;;;;;9.46;70.60;93427.56;4997128;28;20279;-66
2023/04/04 03:03:27;;;;;;;0.90;0.90;;;;;;;9.52;70.38;93426.84;4996260;28;20224;-66
2023/04/04 03:05:53;;;;;;;0.80;0.80;;;;;;;9.55;69.90;93428.28;4968260;28;20222;-66
2023/04/04 03:08:18;;;;;;;0.70;0.70;;;;;;;9.46;70.05;93424.94;4973955;28;20236;-66
2023/04/04 03:10:45;;;;;;;1.00;1.00;;;;;;;9.40;69.93;93433.56;4960021;28;20225;-66
2023/04/04 03:13:11;;;;;;;0.87;0.80;;;;;;;9.48;69.65;93438.69;4963869;28;20220;-67
2023/04/04 03:15:36;;;;;;;0.90;0.87;;;;;;;9.53;70.37;93436.34;5002238;28;20231;-67
2023/04/04 03:18:02;;;;;;;1.10;1.00;;;;;;;9.53;70.06;93436.34;5001999;28;20246;-66
2023/04/04 03:20:28;;;;;;;0.80;0.80;;;;;;;9.61;70.02;93444.09;4967246;28;20219;-66
2023/04/04 03:22:54;;;;;;;0.90;0.90;;;;;;;9.57;69.96;93437.63;5000767;28;20320;-66
2023/04/04 03:25:19;;;;;;;1.00;0.90;;;;;;;9.59;70.52;93437.41;4969240;28;20234;-66
2023/04/04 03:27:45;;;;;;;1.20;1.10;;;;;;;9.57;70.08;93432.38;4997144;28;21264;-67
2023/04/04 03:30:10;;;;;;;0.90;0.90;;;;;;;9.61;70.11;93433.59;4964321;28;20360;-66
2023/04/04 03:32:36;;;;;;;0.90;0.90;;;;;;;9.64;70.23;93446.34;4998598;28;20231;-63
2023/04/04 03:35:02;;;;;;;1.37;0.90;;;;;;;9.66;70.09;93433.88;4971077;28;20179;-62
2023/04/04 03:37:29;;;;;;;1.50;1.40;;;;;;;9.67;70.44;93443.34;4982058;28;20217;-67
2023/04/04 03:39:54;;;;;;;1.30;0.97;;;;;;;9.58;70.19;93449.72;4974961;28;20288;-67
2023/04/04 03:42:20;;;;;;;2.43;1.10;;;;;;;9.57;70.25;93448.09;4973494;28;20224;-68
2023/04/04 03:44:46;;;;;;;1.17;1.07;;;;;;;9.53;70.00;93449.47;4966772;28;20180;-68
2023/04/04 03:47:13;;;;;;;1.17;1.13;;;;;;;9.52;70.25;93447.84;5000886;28;20182;-67
2023/04/04 03:49:38;;;;;;;1.40;1.30;;;;;;;9.57;70.28;93444.66;4970641;28;20228;-65
2023/04/04 03:52:04;;;;;;;1.70;1.40;;;;;;;9.58;70.12;93444.47;4970459;28;20232;-67
2023/04/04 03:54:30;;;;;;;1.30;1.20;;;;;;;9.59;69.64;93450.53;4971164;28;20236;-63
2023/04/04 03:56:56;;;;;;;1.53;1.43;;;;;;;9.67;69.99;93445.16;4995631;28;20245;-63
2023/04/04 03:59:22;;;;;;;1.93;1.60;;;;;;;9.69;70.25;93445.81;5000008;28;20184;-64
2023/04/04 04:01:47;;;;;;;2.77;2.17;;;;;;;9.70;70.43;93444.78;4965255;28;20227;-67
2023/04/04 04:04:13;;;;;;;2.57;2.40;;;;;;;9.65;70.68;93449.78;4993053;28;20247;-65
2023/04/04 04:06:38;;;;;;;3.33;3.07;;;;;;;9.66;70.79;93440.94;4967731;28;20276;-64
2023/04/04 04:09:04;;;;;;;3.60;3.30;;;;;;;9.66;71.57;93443.56;4997155;28;20310;-65
2023/04/04 04:11:29;;;;;;;3.10;2.90;;;;;;;9.68;71.58;93438.94;4965335;28;20659;-65
2023/04/04 04:13:55;;;;;;;3.27;3.00;;;;;;;9.67;71.96;93443.34;4968968;28;20217;-65
2023/04/04 04:16:21;;;;;;;3.40;3.10;;;;;;;9.67;72.44;93439.91;4967388;28;20239;-65
2023/04/04 04:18:47;;;;;;;3.93;3.63;;;;;;;9.65;72.88;93441.91;4966970;28;20869;-65
2023/04/04 04:21:12;;;;;;;3.90;3.60;;;;;;;9.64;73.28;93443.72;4971686;28;20226;-64
2023/04/04 04:23:38;;;;;;;4.50;3.53;;;;;;;9.13;73.97;93443.72;4974996;28;20188;-68
2023/04/04 04:26:04;;;;;;;5.43;2.80;;;;;;;8.82;73.95;93462.22;4970045;28;20555;-64
2023/04/04 04:28:29;;;;;;;4.07;2.93;;;;;;;9.11;73.41;93464.03;4980941;28;20446;-68
2023/04/04 04:30:55;;;;;;;4.23;3.03;;;;;;;9.25;72.89;93476.34;4972980;28;20224;-62
2023/04/04 04:33:28;;;;;;;3.23;2.93;;;;;;;9.34;72.30;93469.19;4970032;28;20230;-66
2023/04/04 04:35:59;;;;;;;3.50;3.20;;;;;;;9.42;72.12;93474.34;4968864;28;25295;-64
2023/04/04 04:38:24;;;;;;;3.60;3.30;;;;;;;9.45;71.95;93471.34;4974817;28;20177;-67
2023/04/04 04:40:49;;;;;;;3.77;3.37;;;;;;;9.49;71.67;93475.25;4970547;28;20217;-62
2023/04/04 04:43:15;;;;;;;4.07;3.73;;;;;;;9.27;71.61;93487.50;4965121;28;20220;-68
2023/04/04 04:45:41;;;;;;;4.93;3.80;;;;;;;9.46;71.11;93486.13;4998117;28;20211;-68
2023/04/04 04:48:06;;;;;;;4.20;3.80;;;;;;;9.54;71.21;93490.44;4968963;28;20235;-68
2023/04/04 04:50:32;;;;;;;3.93;3.60;;;;;;;9.56;71.30;93477.13;4976155;28;20236;-68
2023/04/04 04:52:57;;;;;;;4.87;4.47;;;;;;;9.58;72.48;93480.41;4970388;28;20307;-63
2023/04/04 04:55:23;;;;;;;4.77;4.33;;;;;;;9.52;73.07;93487.19;4970325;28;20231;-63
2023/04/04 04:57:48;;;;;;;4.13;3.73;;;;;;;9.52;73.18;93496.88;4969466;28;20224;-62
2023/04/04 05:00:15;;;;;;;5.17;4.20;;;;;;;9.54;72.59;93500.94;4967107;28;20221;-62
2023/04/04 05:02:41;;;;;;;6.20;4.57;;;;;;;9.44;73.13;93503.03;4971539;28;20191;-62
2023/04/04 05:05:06;;;;;;;5.47;4.70;;;;;;;9.47;72.19;93500.84;4971310;28;20184;-62
2023/04/04 05:07:32;;;;;;;4.97;4.50;;;;;;;9.59;71.86;93508.25;4965843;28;20267;-63
2023/04/04 05:09:57;;;;;;;4.78;4.32;;;;;;;9.67;71.58;93505.53;4999426;28;20223;-62
2023/04/04 05:12:23;;;;;;;5.70;5.13;;;;;;;9.53;71.47;93504.56;4969892;28;20307;-62
2023/04/04 05:14:49;;;;;;;5.27;4.77;;;;;;;9.70;71.21;93506.00;4968833;28;20711;-62
2023/04/04 05:17:14;;;;;;;6.80;5.07;;;;;;;9.66;71.69;93512.59;4968456;28;20288;-64
2023/04/04 05:19:40;;;;;;;6.13;5.63;;;;;;;9.36;73.34;93509.19;4974488;28;20232;-62
2023/04/04 05:22:06;;;;;;;5.80;5.20;;;;;;;9.27;73.99;93521.59;4971371;28;20228;-62
2023/04/04 05:24:32;;;;;;;6.00;5.50;;;;;;;9.21;74.43;93521.47;4982101;28;20224;-62
2023/04/04 05:26:58;;;;;;;5.90;5.40;;;;;;;9.16;75.34;93523.81;4968540;28;21052;-62
2023/04/04 05:29:23;;;;;;;6.80;5.77;;;;;;;9.39;74.97;93516.69;4990895;28;20212;-62
2023/04/04 05:31:49;;;;;;;7.00;6.40;;;;;;;9.68;73.82;93523.75;4968830;28;20216;-62
2023/04/04 05:34:14;;;;;;;7.47;6.77;;;;;;;9.78;73.04;93523.44;4970565;28;20221;-63
2023/04/04 05:36:40;;;;;;;7.83;7.03;;;;;;;9.92;72.72;93522.63;4979878;28;20235;-62
2023/04/04 05:39:06;;;;;;;8.10;6.80;;;;;;;9.90;72.46;93526.41;4972273;28;20220;-62
2023/04/04 05:41:32;;;;;;;8.47;7.67;;;;;;;9.88;72.04;93517.91;4964347;28;20188;-61
2023/04/04 05:43:58;;;;;;;8.40;7.60;;;;;;;9.89;72.14;93522.16;4966187;28;20263;-61
2023/04/04 05:46:23;;;;;;;8.65;7.85;;;;;;;10.04;71.47;93522.94;4963059;28;20217;-62
2023/04/04 05:48:49;;;;;;;7.87;7.20;;;;;;;10.05;71.51;93529.84;4999248;28;20239;-62
2023/04/04 05:51:15;;;;;;;8.38;7.68;;;;;;;10.20;71.23;93528.97;4949308;28;20228;-62
2023/04/04 05:53:41;;;;;;;8.60;7.80;;;;;;;10.28;70.95;93539.41;4969998;28;20191;-62
2023/04/04 05:56:07;;;;;;;9.65;8.60;;;;;;;10.26;71.01;93533.47;4968808;28;20232;-65
2023/04/04 05:58:32;;;;;;;10.38;9.35;;;;;;;10.30;71.41;93538.22;4998668;28;20262;-65
2023/04/04 06:00:58;;;;;;;10.00;9.00;;;;;;;10.24;71.70;93533.69;4977085;28;20220;-64
2023/04/04 06:03:23;;;;;;;10.82;9.55;;;;;;;10.18;71.79;93528.34;4968219;28;20228;-65
2023/04/04 06:05:51;;;;;;;12.05;10.95;;;;;;;10.24;71.03;93532.88;4963307;28;20207;-63
2023/04/04 06:08:16;;;;;;;10.95;9.95;;;;;;;10.37;70.65;93536.47;4968346;28;20203;-62
2023/04/04 06:10:42;;;;;;;11.83;10.73;;;;;;;10.37;70.64;93541.72;4976907;28;20312;-64
2023/04/04 06:13:07;;;;;;;11.77;10.67;;;;;;;10.39;70.85;93552.03;4966541;28;20212;-64
2023/04/04 06:15:33;;;;;;;12.97;11.77;;;;;;;10.35;70.94;93548.16;4966625;28;20224;-62
2023/04/04 06:17:58;;;;;;;13.23;12.07;;;;;;;10.41;70.97;93544.78;4969611;28;20228;-63
2023/04/04 06:20:23;;;;;;;14.00;12.70;;;;;;;10.48;70.63;93537.00;4996012;28;21112;-63
2023/04/04 06:22:49;;;;;;;13.32;12.10;;;;;;;10.35;70.87;93545.53;4970196;28;20216;-64
2023/04/04 06:25:15;;;;;;;14.35;13.15;;;;;;;10.42;70.81;93543.78;4967496;28;20221;-64
2023/04/04 06:27:41;;;;;;;12.63;11.47;;;;;;;10.42;70.22;93550.84;4955562;28;20231;-64
2023/04/04 06:30:07;;;;;;;11.20;10.20;;;;;;;10.53;69.76;93552.97;4953837;28;20220;-64
2023/04/04 06:32:32;;;;;;;11.23;10.23;;;;;;;10.63;69.14;93548.22;4968615;28;20223;-65
2023/04/04 06:34:58;;;;;;;10.00;9.10;;;;;;;10.76;68.84;93560.69;4961109;28;20226;-64
2023/04/04 06:37:23;;;;;;;10.80;9.70;;;;;;;10.62;69.00;93562.38;4990017;28;20225;-65
2023/04/04 06:39:49;;;;;;;10.13;9.25;;;;;;;10.64;69.33;93567.44;4964530;28;20255;-64
2023/04/04 06:42:14;;;;;;;10.77;9.77;;;;;;;10.77;68.94;93570.19;4959572;28;20240;-64
2023/04/04 06:44:40;;;;;;;10.68;9.70;;;;;;;10.77;68.49;93572.81;4965189;28;20200;-64
2023/04/04 06:47:05;;;;;;;7.60;6.85;;;;;;;10.43;68.62;93584.03;4962342;28;20199;-64
2023/04/04 06:49:32;;;;;;;5.03;4.05;;;;;;;10.23;67.52;93589.81;4966444;28;20217;-63
2023/04/04 06:51:59;;;;;;;3.30;2.80;;;;;;;9.98;66.36;93593.78;4967880;28;20254;-63
2023/04/04 06:54:25;;;;;;;2.67;2.00;;;;;;;9.84;64.59;93604.09;4979731;28;20227;-64
2023/04/04 06:56:51;;;;;;;1.50;1.40;;;;;;;9.44;62.79;93605.38;4999498;28;20192;-65
2023/04/04 06:59:17;;;;;;;1.63;1.53;;;;;;;9.33;63.30;93618.88;4963610;28;20219;-65
2023/04/04 07:01:42;;;;;;;1.30;1.10;;;;;;;9.06;63.84;93623.72;4960908;28;20220;-63
2023/04/04 07:04:08;;;;;;;1.10;1.00;;;;;;;9.09;62.04;93622.53;4971127;28;20363;-62
2023/04/04 07:06:33;;;;;;;1.50;1.10;;;;;;;8.90;61.66;93650.06;4966969;28;20216;-64
2023/04/04 07:08:58;;;;;;;1.30;1.10;;;;;;;8.73;60.29;93650.16;4970706;28;20228;-65
2023/04/04 07:11:24;;;;;;;0.80;0.80;;;;;;;8.41;60.95;93669.50;4971228;28;20241;-64
2023/04/04 07:13:50;;;;;;;1.10;1.00;;;;;;;8.31;60.83;93667.09;4969483;28;20311;-64
2023/04/04 07:16:15;;;;;;;1.10;1.00;;;;;;;8.30;61.47;93680.34;4968268;28;20235;-65
2023/04/04 07:18:41;;;;;;;0.77;0.77;;;;;;;8.29;61.47;93689.19;4969184;28;20216;-66
2023/04/04 07:21:06;;;;;;;0.90;0.80;;;;;;;8.15;61.17;93690.72;4969481;28;20212;-65
2023/04/04 07:23:31;;;;;;;1.77;1.23;;;;;;;8.00;60.47;93695.03;4996486;28;20199;-65
2023/04/04 07:25:57;;;;;;;2.73;1.30;;;;;;;7.93;61.42;93694.88;4975402;28;20266;-63
2023/04/04 07:28:22;;;;;;;1.80;1.40;;;;;;;7.88;60.73;93713.69;4970321;28;20224;-63
2023/04/04 07:30:48;;;;;;;3.50;1.10;;;;;;;7.83;61.01;93712.56;5000232;28;20223;-64
2023/04/04 07:33:13;;;;;;;1.17;1.07;;;;;;;7.52;60.64;93708.03;4969314;28;20220;-64
2023/04/04 07:35:39;;;;;;;1.23;1.13;;;;;;;7.45;61.36;93707.88;4968678;28;20549;-64
2023/04/04 07:38:04;;;;;;;4.37;1.20;;;;;;;7.56;61.34;93717.19;4967110;28;20199;-64
2023/04/04 07:40:30;;;;;;;2.17;1.33;;;;;;;7.59;60.95;93716.03;4970725;28;20224;-63
2023/04/04 07:42:56;;;;;;;1.53;1.43;;;;;;;7.81;60.78;93717.16;4968069;28;20232;-64
2023/04/04 07:45:21;;;;;;;3.27;1.70;;;;;;;7.90;60.15;93721.38;5000149;28;20275;-63
2023/04/04 07:47:47;;;;;;;2.27;1.27;;;;;;;7.72;58.69;93719.81;4968800;28;20212;-63
2023/04/04 07:50:13;;;;;;;1.27;1.10;;;;;;;7.61;58.36;93727.16;5001486;28;20581;-64
2023/04/04 07:52:39;;;;;;;1.30;1.20;;;;;;;7.45;59.35;93734.03;4966228;28;20227;-64
2023/04/04 07:55:06;;;;;;;1.73;1.43;;;;;;;7.50;59.38;93736.16;4997479;28;20220;-63
2023/04/04 07:57:38;;;;;;;1.93;1.27;;;;;;;7.33;60.40;93735.34;4968575;28;20224;-62
2023/04/04 08:00:08;;;;;;;2.03;1.50;;;;;;;7.13;59.07;93755.75;4999090;28;20224;-63
2023/04/04 08:02:35;;;;;;;1.07;0.97;;;;;;;7.01;59.74;93736.97;4970610;28;20195;-63
2023/04/04 08:05:01;;;;;;;3.93;0.93;;;;;;;6.94;59.85;93761.28;4995131;28;20224;-63
2023/04/04 08:07:26;;;;;;;1.67;0.90;;;;;;;6.94;59.76;93751.63;4969065;28;20227;-62
2023/04/04 08:09:52;;;;;;;2.13;1.00;;;;;;;6.94;59.71;93756.06;4967786;28;20263;-62
2023/04/04 08:12:17;;;;;;;2.00;0.70;;;;;;;7.06;59.12;93755.59;4996962;28;20254;-61
2023/04/04 08:14:43;;;;;;;1.60;0.77;;;;;;;6.85;58.79;93758.66;4996906;28;20227;-62
2023/04/04 08:17:08;;;;;;;1.07;0.83;;;;;;;6.90;58.54;93766.03;4969289;28;20219;-61
2023/04/04 08:19:34;;;;;;;1.10;1.00;;;;;;;6.81;59.10;93774.78;4969230;28;20258;-63
2023/04/04 08:22:00;;;;;;;1.33;1.20;;;;;;;6.88;58.81;93780.22;4999935;28;20228;-63
2023/04/04 08:24:25;;;;;;;1.20;0.90;;;;;;;6.79;59.31;93779.34;4969964;28;20270;-64
2023/04/04 08:26:51;;;;;;;1.47;1.33;;;;;;;6.94;58.92;93783.00;4997423;28;20216;-62
2023/04/04 08:29:16;;;;;;;1.70;1.03;;;;;;;7.06;59.22;93786.16;4964817;28;20204;-64
2023/04/04 08:31:42;;;;;;;1.10;0.80;;;;;;;6.77;58.98;93802.22;4967028;28;20219;-62
2023/04/04 08:34:07;;;;;;;1.60;1.27;;;;;;;6.44;60.11;93788.22;4995420;28;20228;-63
2023/04/04 08:36:34;;;;;;;1.20;1.10;;;;;;;6.60;58.84;93796.97;4966555;28;20220;-62
2023/04/04 08:39:00;;;;;;;1.37;1.03;;;;;;;5.94;60.82;93794.97;4996847;28;20311;-62
2023/04/04 08:41:26;;;;;;;1.10;1.00;;;;;;;6.18;60.93;93792.50;4995463;28;20327;-62
2023/04/04 08:43:53;;;;;;;2.13;1.10;;;;;;;6.17;60.95;93803.94;4968006;28;20235;-62
2023/04/04 08:46:23;;;;;;;1.00;1.00;;;;;;;6.54;59.38;93797.56;4963287;28;20235;-63
2023/04/04 08:48:51;;;;;;;1.77;1.00;;;;;;;6.24;60.09;93798.09;4961359;28;20236;-62
2023/04/04 08:51:19;;;;;;;3.13;1.07;;;;;;;6.21;60.11;93809.66;4950098;28;20231;-63
2023/04/04 08:53:44;;;;;;;1.03;1.03;;;;;;;6.10;60.53;93810.75;4967629;28;20192;-62
2023/04/04 08:56:10;;;;;;;1.20;1.10;;;;;;;5.90;61.77;93804.84;4998553;28;20195;-62
2023/04/04 08:58:37;;;;;;;1.57;1.17;;;;;;;6.22;61.71;93826.94;4969798;28;20312;-62
2023/04/04 09:01:04;;;;;;;1.40;1.23;;;;;;;6.14;61.93;93822.50;4998448;28;20364;-63
2023/04/04 09:03:33;;;;;;;1.03;0.90;;;;;;;6.28;59.94;93817.66;4964231;28;20225;-62
2023/04/04 09:06:00;;;;;;;1.20;1.10;;;;;;;6.34;60.59;93822.28;4952155;28;20914;-63
2023/04/04 09:08:25;;;;;;;1.30;1.20;;;;;;;6.38;60.86;93828.81;4972075;28;20343;-63
2023/04/04 09:10:52;;;;;;;1.20;1.10;;;;;;;6.51;61.74;93828.41;5001334;28;20229;-64
2023/04/04 09:13:18;;;;;;;2.47;1.60;;;;;;;6.48;63.00;93842.59;4982716;28;20248;-63
2023/04/04 09:15:48;;;;;;;0.90;0.90;;;;;;;6.22;61.34;93834.78;4995680;28;20268;-63
2023/04/04 09:18:15;;;;;;;1.23;1.10;;;;;;;6.53;60.16;93832.50;4968896;28;20220;-63
2023/04/04 09:20:42;;;;;;;1.37;1.10;;;;;;;6.47;60.54;93827.06;4972290;28;20224;-63
2023/04/04 09:23:09;;;;;;;1.20;1.10;;;;;;;6.31;61.14;93839.09;5000913;28;20199;-63
2023/04/04 09:25:36;;;;;;;1.20;1.00;;;;;;;6.34;59.58;93838.78;4966956;28;20232;-63
2023/04/04 09:28:05;;;;;;;1.77;1.20;;;;;;;6.28;59.47;93830.72;4968622;28;20243;-63
2023/04/04 09:30:37;;;;;;;1.20;1.10;;;;;;;6.30;59.52;93839.22;4971276;28;20228;-62
2023/04/04 09:33:08;;;;;;;1.10;1.10;;;;;;;6.49;59.29;93839.00;4965353;28;20254;-62
2023/04/04 09:35:37;;;;;;;2.10;1.20;;;;;;;6.30;58.87;93854.88;4965387;28;20184;-62
2023/04/04 09:38:04;;;;;;;1.70;1.50;;;;;;;6.31;58.22;93846.09;4967143;28;20213;-62
2023/04/04 09:40:30;;;;;;;1.43;1.33;;;;;;;6.30;58.84;93844.44;4998069;28;20701;-63
2023/04/04 09:42:59;;;;;;;1.40;1.30;;;;;;;6.13;59.56;93846.16;4971243;28;20220;-63
2023/04/04 09:45:25;;;;;;;1.50;1.40;;;;;;;6.13;59.99;93833.09;4960444;28;20233;-63
2023/04/04 09:47:50;;;;;;;1.80;1.30;;;;;;;6.23;57.60;93839.03;4981309;28;20373;-63
2023/04/04 09:50:24;;;;;;;1.53;1.43;;;;;;;6.44;57.91;93841.25;4971773;28;20195;-63
2023/04/04 09:52:51;;;;;;;1.50;1.40;;;;;;;6.37;58.30;93848.09;4963517;28;20231;-63
2023/04/04 09:55:17;;;;;;;1.67;1.53;;;;;;;6.34;57.91;93843.19;4979390;28;20262;-63
2023/04/04 09:57:45;;;;;;;1.33;1.23;;;;;;;6.16;57.69;93846.66;4964215;28;20252;-62
2023/04/04 10:00:11;;;;;;;1.30;1.20;;;;;;;6.52;57.22;93840.47;4996796;28;20308;-63
2023/04/04 10:02:39;;;;;;;1.60;1.50;;;;;;;6.74;56.89;93842.56;4985271;28;20756;-63
2023/04/04 10:05:09;;;;;;;1.47;1.33;;;;;;;6.86;56.91;93853.53;4999274;28;20199;-63
2023/04/04 10:07:38;;;;;;;1.43;1.10;;;;;;;6.73;57.07;93848.72;4968629;28;20227;-63
2023/04/04 10:10:08;;;;;;;1.43;1.30;;;;;;;6.66;58.17;93879.09;4966006;28;20256;-63
2023/04/04 10:12:35;;;;;;;1.13;0.97;;;;;;;6.65;55.65;93856.53;4997922;28;20232;-62
2023/04/04 10:15:01;;;;;;;1.23;1.17;;;;;;;6.39;57.61;93857.41;4970664;28;20219;-63
2023/04/04 10:17:40;;;;;;;1.37;1.27;;;;;;;6.69;56.93;93862.28;4975314;28;20293;-63
2023/04/04 10:20:08;;;;;;;1.40;1.30;;;;;;;6.81;57.71;93868.84;4964603;28;20220;-64
2023/04/04 10:22:35;;;;;;;1.50;1.40;;;;;;;7.06;57.31;93862.75;4995965;28;20243;-62
2023/04/04 10:25:00;;;;;;;1.30;1.20;;;;;;;7.19;56.19;93874.53;4963751;28;20228;-65
2023/04/04 10:27:26;;;;;;;1.50;1.40;;;;;;;6.96;55.57;93871.69;4970156;28;20236;-64
2023/04/04 10:29:52;;;;;;;1.80;1.70;;;;;;;6.80;57.19;93885.53;4996578;28;20205;-64
2023/04/04 10:32:26;;;;;;;1.40;1.30;;;;;;;6.86;56.48;93890.09;4970555;28;20184;-62
2023/04/04 10:35:21;;;;;;;1.30;1.20;;;;;;;6.69;56.75;93893.63;5001855;28;20282;-63
2023/04/04 10:38:01;;;;;;;2.60;1.80;;;;;;;6.59;58.25;93902.38;4966020;28;20228;-63
2023/04/04 10:40:33;;;;;;;1.90;1.70;;;;;;;6.74;57.36;93897.41;5001997;28;20310;-64
2023/04/04 10:43:02;;;;;;;1.60;1.50;;;;;;;6.48;57.03;93892.22;4998843;28;20231;-63
2023/04/04 10:45:30;;;;;;;1.90;1.70;;;;;;;6.49;56.91;93899.06;4964912;28;20273;-63
2023/04/04 10:47:56;;;;;;;1.60;1.50;;;;;;;6.34;57.00;93900.63;4967887;28;20224;-63
2023/04/04 10:50:21;;;;;;;1.37;1.27;;;;;;;6.25;56.83;93902.34;4972077;28;20196;-64
2023/04/04 10:52:48;;;;;;;1.60;1.50;;;;;;;6.39;56.23;93893.16;4969048;28;20610;-63
2023/04/04 10:55:14;;;;;;;1.50;1.40;;;;;;;6.17;57.86;93910.94;4999456;28;20220;-63
2023/04/04 10:57:43;;;;;;;1.77;1.67;;;;;;;6.50;57.11;93900.72;4970163;28;20243;-64
2023/04/04 11:00:19;;;;;;;2.07;1.97;;;;;;;6.52;56.94;93903.16;4999728;28;20229;-64
2023/04/04 11:02:51;;;;;;;2.43;2.03;;;;;;;6.40;57.28;93900.00;4982399;28;20565;-63
2023/04/04 11:05:36;;;;;;;2.10;2.00;;;;;;;6.55;56.64;93898.47;4984578;28;20279;-63
2023/04/04 11:08:04;;;;;;;1.87;1.70;;;;;;;6.71;56.13;93905.56;4969179;28;20228;-63
2023/04/04 11:10:30;;;;;;;2.80;1.80;;;;;;;6.66;56.02;93920.06;4971591;28;20244;-63
2023/04/04 11:13:06;;;;;;;2.30;2.10;;;;;;;6.58;55.70;93908.59;4988560;28;20240;-63
2023/04/04 11:16:03;;;;;;;2.17;1.97;;;;;;;6.77;55.22;93914.56;4962387;28;20314;-63
2023/04/04 11:18:41;;;;;;;2.20;1.93;;;;;;;6.59;55.79;93915.44;4962834;28;20260;-63
2023/04/04 11:21:28;;;;;;;1.70;1.60;;;;;;;6.54;55.94;93922.09;4964624;28;20228;-62
2023/04/04 11:23:57;;;;;;;1.93;1.70;;;;;;;6.57;55.52;93924.41;4963911;28;20197;-62
2023/04/04 11:26:26;;;;;;;2.43;2.07;;;;;;;6.31;56.68;93925.25;4966028;28;20220;-61
2023/04/04 11:28:55;;;;;;;2.27;2.07;;;;;;;6.29;57.06;93927.19;4964388;28;20228;-62
2023/04/04 11:31:23;;;;;;;2.40;2.17;;;;;;;6.40;56.26;93931.34;4995093;28;20278;-64
2023/04/04 11:34:04;;;;;;;2.47;2.27;;;;;;;6.33;56.48;93933.72;4969518;28;20756;-64
2023/04/04 11:36:40;;;;;;;2.37;2.27;;;;;;;6.31;56.72;93937.47;4947330;28;20287;-63